createdAt,value
2023-05-13T00:00:34.356Z,0.00
2023-05-13T00:01:34.534Z,0.00
2023-05-13T00:02:34.759Z,0.00
2023-05-13T00:03:35.092Z,0.00
2023-05-13T00:04:35.121Z,0.00
2023-05-13T00:05:35.282Z,0.00
2023-05-13T00:06:35.518Z,0.00
2023-05-13T00:07:35.608Z,0.00
2023-05-13T00:08:35.795Z,0.00
2023-05-13T00:09:35.967Z,0.00
2023-05-13T00:10:36.125Z,0.00
2023-05-13T00:11:36.272Z,0.00
2023-05-13T00:12:36.448Z,0.00
2023-05-13T00:13:36.633Z,0.00
2023-05-13T00:14:36.782Z,0.00
2023-05-13T00:15:36.997Z,0.00
2023-05-13T00:16:37.155Z,0.00
2023-05-13T00:17:37.464Z,0.00
2023-05-13T00:18:37.519Z,0.00
2023-05-13T00:19:37.644Z,0.00
2023-05-13T00:20:37.817Z,0.00
2023-05-13T00:21:38.020Z,0.00
2023-05-13T00:22:38.179Z,0.00
2023-05-13T00:23:38.364Z,0.00
2023-05-13T00:24:38.531Z,0.00
2023-05-13T00:25:38.713Z,0.00
2023-05-13T00:26:38.887Z,0.00
2023-05-13T00:27:39.094Z,0.00
2023-05-13T00:28:39.252Z,0.00
2023-05-13T00:29:39.451Z,0.00
2023-05-13T00:30:39.603Z,0.00
2023-05-13T00:31:39.839Z,0.00
2023-05-13T00:32:40.008Z,0.00
2023-05-13T00:33:40.126Z,0.00
2023-05-13T00:34:40.310Z,0.00
2023-05-13T00:35:40.493Z,0.00
2023-05-13T00:36:40.638Z,0.00
2023-05-13T00:37:40.839Z,0.00
2023-05-13T00:38:40.996Z,0.00
2023-05-13T00:39:41.170Z,0.00
2023-05-13T00:40:41.369Z,0.00
2023-05-13T00:41:41.528Z,0.00
2023-05-13T00:42:41.692Z,0.00
2023-05-13T00:43:41.886Z,0.00
2023-05-13T00:44:42.036Z,0.00
2023-05-13T00:45:42.277Z,0.00
2023-05-13T00:46:42.417Z,0.00
2023-05-13T00:47:42.567Z,0.00
2023-05-13T00:48:42.747Z,0.00
2023-05-13T00:49:42.938Z,0.00
2023-05-13T00:50:43.121Z,0.00
2023-05-13T00:51:43.289Z,0.00
2023-05-13T00:52:43.440Z,0.00
2023-05-13T00:53:43.630Z,0.00
2023-05-13T00:54:43.804Z,0.00
2023-05-13T00:55:43.998Z,0.00
2023-05-13T00:56:44.159Z,0.00
2023-05-13T00:57:44.321Z,0.00
2023-05-13T00:58:44.500Z,0.00
2023-05-13T00:59:44.720Z,0.00
2023-05-13T01:00:44.901Z,0.00
2023-05-13T01:01:45.196Z,0.00
2023-05-13T01:02:45.286Z,0.00
2023-05-13T01:03:45.379Z,0.00
2023-05-13T01:04:45.575Z,0.00
2023-05-13T01:05:45.771Z,0.00
2023-05-13T01:06:45.940Z,0.00
2023-05-13T01:07:46.125Z,0.00
2023-05-13T01:08:46.320Z,0.00
2023-05-13T01:09:46.501Z,0.00
2023-05-13T01:10:46.683Z,0.00
2023-05-13T01:11:46.885Z,0.00
2023-05-13T01:12:47.038Z,0.00
2023-05-13T01:13:47.227Z,0.00
2023-05-13T01:14:47.391Z,0.00
2023-05-13T01:15:47.598Z,0.00
2023-05-13T01:16:47.790Z,0.00
2023-05-13T01:17:48.001Z,0.00
2023-05-13T01:18:48.168Z,0.00
2023-05-13T01:19:48.277Z,0.00
2023-05-13T01:20:48.422Z,0.00
2023-05-13T01:21:48.603Z,0.00
2023-05-13T01:22:48.768Z,0.00
2023-05-13T01:23:48.973Z,0.00
2023-05-13T01:24:49.112Z,0.00
2023-05-13T01:25:49.301Z,0.00
2023-05-13T01:26:49.507Z,0.00
2023-05-13T01:27:49.670Z,0.00
2023-05-13T01:28:49.829Z,0.00
2023-05-13T01:29:50.015Z,0.00
2023-05-13T01:30:50.192Z,0.00
2023-05-13T01:31:50.366Z,0.00
2023-05-13T01:32:50.608Z,0.00
2023-05-13T01:33:50.725Z,0.00
2023-05-13T01:34:50.905Z,0.00
2023-05-13T01:35:51.084Z,0.00
2023-05-13T01:36:51.267Z,0.00
2023-05-13T01:37:51.506Z,0.00
2023-05-13T01:38:51.616Z,0.00
2023-05-13T01:39:51.806Z,0.00
2023-05-13T01:40:51.967Z,0.00
2023-05-13T01:41:52.155Z,0.00
2023-05-13T01:42:52.350Z,0.00
2023-05-13T01:43:52.541Z,0.00
2023-05-13T01:44:52.718Z,0.00
2023-05-13T01:45:52.901Z,0.00
2023-05-13T01:46:53.176Z,0.00
2023-05-13T01:47:53.286Z,0.00
2023-05-13T01:48:53.423Z,0.00
2023-05-13T01:49:53.596Z,0.00
2023-05-13T01:50:53.799Z,0.00
2023-05-13T01:51:53.961Z,0.00
2023-05-13T01:52:54.164Z,0.00
2023-05-13T01:53:54.296Z,0.00
2023-05-13T01:54:54.484Z,0.00
2023-05-13T01:55:54.660Z,0.00
2023-05-13T01:56:54.832Z,0.00
2023-05-13T01:57:55.031Z,0.00
2023-05-13T01:58:55.184Z,0.00
2023-05-13T01:59:55.351Z,0.00
2023-05-13T02:00:55.531Z,0.00
2023-05-13T02:01:55.766Z,0.00
2023-05-13T02:02:55.966Z,0.00
2023-05-13T02:03:56.082Z,0.00
2023-05-13T02:04:56.237Z,0.00
2023-05-13T02:05:56.435Z,0.00
2023-05-13T02:06:56.573Z,0.00
2023-05-13T02:07:56.768Z,0.00
2023-05-13T02:08:56.904Z,0.00
2023-05-13T02:09:57.075Z,0.00
2023-05-13T02:10:57.261Z,0.00
2023-05-13T02:11:57.443Z,0.00
2023-05-13T02:12:57.630Z,0.00
2023-05-13T02:13:57.778Z,0.00
2023-05-13T02:14:57.957Z,0.00
2023-05-13T02:15:58.206Z,0.00
2023-05-13T02:16:58.447Z,0.00
2023-05-13T02:17:58.512Z,0.00
2023-05-13T02:18:58.634Z,0.00
2023-05-13T02:19:58.823Z,0.00
2023-05-13T02:20:58.983Z,0.00
2023-05-13T02:21:59.189Z,0.00
2023-05-13T02:22:59.350Z,0.00
2023-05-13T02:23:59.528Z,0.00
2023-05-13T02:24:59.718Z,0.00
2023-05-13T02:25:59.898Z,0.00
2023-05-13T02:27:00.090Z,0.00
2023-05-13T02:28:00.257Z,0.00
2023-05-13T02:29:00.415Z,0.00
2023-05-13T02:30:00.586Z,0.00
2023-05-13T02:31:00.760Z,0.00
2023-05-13T02:32:00.956Z,0.00
2023-05-13T02:33:01.165Z,0.00
2023-05-13T02:34:01.268Z,0.00
2023-05-13T02:35:01.442Z,0.00
2023-05-13T02:36:01.652Z,0.00
2023-05-13T02:37:01.800Z,0.00
2023-05-13T02:38:01.995Z,0.00
2023-05-13T02:39:02.139Z,0.00
2023-05-13T02:40:02.324Z,0.00
2023-05-13T02:41:02.511Z,0.00
2023-05-13T02:42:02.694Z,0.00
2023-05-13T02:43:02.856Z,0.00
2023-05-13T02:44:03.044Z,0.00
2023-05-13T02:45:03.214Z,0.00
2023-05-13T02:46:03.431Z,0.00
2023-05-13T02:47:03.524Z,0.00
2023-05-13T02:48:03.732Z,0.00
2023-05-13T02:49:03.906Z,0.00
2023-05-13T02:50:04.125Z,0.00
2023-05-13T02:51:04.244Z,0.00
2023-05-13T02:52:04.430Z,0.00
2023-05-13T02:53:04.605Z,0.00
2023-05-13T02:54:04.782Z,0.00
2023-05-13T02:55:05.041Z,0.00
2023-05-13T02:56:05.116Z,0.00
2023-05-13T02:57:05.305Z,0.00
2023-05-13T02:58:05.479Z,0.00
2023-05-13T02:59:05.751Z,0.00
2023-05-13T03:00:05.851Z,0.00
2023-05-13T03:01:06.047Z,0.00
2023-05-13T03:02:06.224Z,0.00
2023-05-13T03:03:06.452Z,0.00
2023-05-13T03:04:06.537Z,0.00
2023-05-13T03:05:06.693Z,0.00
2023-05-13T03:06:06.859Z,0.00
2023-05-13T03:07:07.024Z,0.00
2023-05-13T03:08:07.205Z,0.00
2023-05-13T03:09:07.404Z,0.00
2023-05-13T03:10:07.560Z,0.00
2023-05-13T03:11:07.751Z,0.00
2023-05-13T03:12:07.942Z,0.00
2023-05-13T03:13:08.121Z,0.00
2023-05-13T03:14:08.317Z,0.00
2023-05-13T03:15:08.457Z,0.00
2023-05-13T03:16:08.695Z,0.00
2023-05-13T03:17:08.810Z,0.00
2023-05-13T03:18:08.972Z,0.00
2023-05-13T03:19:09.229Z,0.00
2023-05-13T03:20:09.340Z,0.00
2023-05-13T03:21:09.490Z,0.00
2023-05-13T03:22:09.656Z,0.00
2023-05-13T03:23:09.833Z,0.00
2023-05-13T03:24:10.003Z,0.00
2023-05-13T03:25:10.174Z,0.00
2023-05-13T03:26:10.351Z,0.00
2023-05-13T03:27:10.511Z,0.00
2023-05-13T03:28:10.686Z,0.00
2023-05-13T03:29:10.839Z,0.00
2023-05-13T03:30:11.036Z,0.00
2023-05-13T03:31:11.232Z,0.00
2023-05-13T03:32:11.374Z,0.00
2023-05-13T03:33:11.552Z,0.00
2023-05-13T03:34:11.723Z,0.00
2023-05-13T03:35:11.896Z,0.00
2023-05-13T03:36:12.068Z,0.00
2023-05-13T03:37:12.229Z,0.00
2023-05-13T03:38:12.406Z,0.00
2023-05-13T03:39:12.580Z,0.00
2023-05-13T03:40:12.762Z,0.00
2023-05-13T03:41:12.941Z,0.00
2023-05-13T03:42:13.119Z,0.00
2023-05-13T03:43:13.263Z,0.00
2023-05-13T03:44:13.434Z,0.00
2023-05-13T03:45:13.630Z,5.62
2023-05-13T03:46:13.774Z,5.62
2023-05-13T03:47:13.930Z,5.62
2023-05-13T03:48:14.105Z,5.62
2023-05-13T03:49:14.259Z,5.62
2023-05-13T03:50:14.465Z,5.62
2023-05-13T03:51:14.616Z,5.62
2023-05-13T03:52:14.783Z,5.62
2023-05-13T03:53:14.936Z,5.62
2023-05-13T03:54:15.109Z,5.62
2023-05-13T03:55:15.373Z,5.62
2023-05-13T03:56:15.465Z,5.62
2023-05-13T03:57:15.680Z,5.62
2023-05-13T03:58:15.847Z,5.62
2023-05-13T03:59:16.018Z,5.62
2023-05-13T04:00:16.177Z,5.62
2023-05-13T04:01:16.364Z,5.62
2023-05-13T04:02:16.558Z,5.62
2023-05-13T04:03:16.694Z,5.62
2023-05-13T04:04:16.878Z,5.62
2023-05-13T04:05:17.060Z,5.62
2023-05-13T04:06:17.198Z,5.62
2023-05-13T04:07:17.374Z,5.62
2023-05-13T04:08:17.619Z,5.62
2023-05-13T04:09:17.734Z,5.62
2023-05-13T04:10:17.937Z,5.62
2023-05-13T04:11:18.139Z,5.62
2023-05-13T04:12:18.324Z,5.62
2023-05-13T04:13:18.514Z,5.62
2023-05-13T04:14:18.665Z,5.62
2023-05-13T04:15:18.862Z,5.62
2023-05-13T04:16:19.133Z,5.62
2023-05-13T04:17:19.307Z,5.62
2023-05-13T04:18:19.375Z,11.25
2023-05-13T04:19:19.568Z,11.25
2023-05-13T04:20:20.009Z,11.25
2023-05-13T04:21:19.928Z,11.25
2023-05-13T04:22:20.094Z,11.25
2023-05-13T04:23:20.270Z,11.25
2023-05-13T04:24:20.424Z,11.25
2023-05-13T04:25:20.586Z,11.25
2023-05-13T04:26:20.761Z,11.25
2023-05-13T04:27:20.918Z,11.25
2023-05-13T04:28:21.075Z,11.25
2023-05-13T04:29:21.256Z,11.25
2023-05-13T04:30:21.582Z,11.25
2023-05-13T04:31:21.614Z,11.25
2023-05-13T04:32:21.947Z,11.25
2023-05-13T04:33:21.935Z,11.25
2023-05-13T04:34:22.109Z,11.25
2023-05-13T04:35:22.309Z,11.25
2023-05-13T04:36:22.477Z,11.25
2023-05-13T04:37:22.653Z,11.25
2023-05-13T04:38:22.836Z,11.25
2023-05-13T04:39:22.995Z,11.25
2023-05-13T04:40:23.321Z,11.25
2023-05-13T04:41:23.312Z,11.25
2023-05-13T04:42:23.485Z,11.25
2023-05-13T04:43:23.646Z,11.25
2023-05-13T04:44:23.819Z,11.25
2023-05-13T04:45:23.995Z,11.25
2023-05-13T04:46:24.292Z,11.25
2023-05-13T04:47:24.374Z,11.25
2023-05-13T04:48:24.500Z,11.25
2023-05-13T04:49:24.669Z,11.25
2023-05-13T04:50:24.812Z,11.25
2023-05-13T04:51:24.998Z,11.25
2023-05-13T04:52:25.155Z,16.88
2023-05-13T04:53:25.343Z,16.88
2023-05-13T04:54:25.505Z,16.88
2023-05-13T04:55:27.528Z,16.88
2023-05-13T04:56:25.816Z,16.88
2023-05-13T04:57:26.025Z,16.88
2023-05-13T04:58:26.181Z,16.88
2023-05-13T04:59:26.314Z,16.88
2023-05-13T05:00:26.456Z,16.88
2023-05-13T05:01:26.685Z,16.88
2023-05-13T05:02:26.848Z,16.88
2023-05-13T05:03:27.007Z,16.88
2023-05-13T05:04:27.117Z,16.88
2023-05-13T05:05:27.295Z,16.88
2023-05-13T05:06:27.497Z,16.88
2023-05-13T05:07:27.602Z,16.88
2023-05-13T05:08:27.796Z,16.88
2023-05-13T05:09:27.964Z,16.88
2023-05-13T05:10:28.088Z,16.88
2023-05-13T05:11:28.280Z,16.88
2023-05-13T05:12:28.424Z,16.88
2023-05-13T05:13:28.591Z,16.88
2023-05-13T05:14:28.751Z,16.88
2023-05-13T05:15:28.925Z,16.88
2023-05-13T05:16:29.114Z,16.88
2023-05-13T05:17:29.408Z,16.88
2023-05-13T05:18:29.508Z,16.88
2023-05-13T05:19:29.654Z,16.88
2023-05-13T05:20:29.829Z,16.88
2023-05-13T05:21:30.005Z,16.88
2023-05-13T05:22:30.183Z,16.88
2023-05-13T05:23:30.395Z,16.88
2023-05-13T05:24:30.475Z,16.88
2023-05-13T05:25:30.696Z,16.88
2023-05-13T05:26:30.833Z,16.88
2023-05-13T05:27:30.987Z,16.88
2023-05-13T05:28:31.196Z,16.88
2023-05-13T05:29:31.344Z,22.50
2023-05-13T05:30:31.528Z,22.50
2023-05-13T05:31:31.701Z,22.50
2023-05-13T05:32:31.859Z,22.50
2023-05-13T05:33:32.049Z,22.50
2023-05-13T05:34:32.194Z,22.50
2023-05-13T05:35:32.353Z,22.50
2023-05-13T05:36:32.522Z,22.50
2023-05-13T05:37:32.681Z,22.50
2023-05-13T05:38:32.852Z,22.50
2023-05-13T05:39:33.034Z,22.50
2023-05-13T05:40:33.225Z,22.50
2023-05-13T05:41:33.368Z,22.50
2023-05-13T05:42:33.531Z,22.50
2023-05-13T05:43:33.703Z,22.50
2023-05-13T05:44:33.851Z,22.50
2023-05-13T05:45:34.072Z,22.50
2023-05-13T05:46:34.438Z,22.50
2023-05-13T05:47:34.459Z,22.50
2023-05-13T05:48:34.927Z,22.50
2023-05-13T05:49:34.761Z,22.50
2023-05-13T05:50:34.961Z,22.50
2023-05-13T05:51:35.096Z,22.50
2023-05-13T05:52:35.243Z,22.50
2023-05-13T05:53:35.417Z,22.50
2023-05-13T05:54:35.588Z,22.50
2023-05-13T05:55:35.761Z,22.50
2023-05-13T05:56:35.933Z,22.50
2023-05-13T05:57:36.098Z,22.50
2023-05-13T05:58:36.262Z,22.50
2023-05-13T05:59:36.436Z,22.50
2023-05-13T06:00:36.603Z,22.50
2023-05-13T06:01:36.833Z,22.50
2023-05-13T06:02:37.022Z,22.50
2023-05-13T06:03:37.154Z,22.50
2023-05-13T06:04:37.445Z,22.50
2023-05-13T06:05:37.489Z,22.50
2023-05-13T06:06:37.849Z,22.50
2023-05-13T06:07:37.848Z,28.12
2023-05-13T06:08:38.010Z,28.12
2023-05-13T06:09:38.199Z,28.12
2023-05-13T06:10:38.339Z,28.12
2023-05-13T06:11:38.501Z,28.12
2023-05-13T06:12:38.694Z,28.12
2023-05-13T06:13:38.852Z,28.12
2023-05-13T06:14:39.000Z,28.12
2023-05-13T06:15:39.187Z,28.12
2023-05-13T06:16:39.338Z,28.12
2023-05-13T06:17:39.532Z,28.12
2023-05-13T06:18:39.736Z,28.12
2023-05-13T06:19:39.855Z,28.12
2023-05-13T06:20:40.003Z,28.12
2023-05-13T06:21:40.175Z,28.12
2023-05-13T06:22:40.362Z,28.12
2023-05-13T06:23:40.573Z,28.12
2023-05-13T06:24:40.690Z,28.12
2023-05-13T06:25:40.872Z,28.12
2023-05-13T06:26:41.047Z,28.12
2023-05-13T06:27:41.223Z,28.12
2023-05-13T06:28:41.424Z,28.12
2023-05-13T06:29:41.600Z,28.12
2023-05-13T06:30:41.768Z,28.12
2023-05-13T06:31:41.974Z,28.12
2023-05-13T06:32:53.563Z,28.12
2023-05-13T06:33:43.287Z,28.12
2023-05-13T06:34:42.466Z,28.12
2023-05-13T06:35:42.644Z,28.12
2023-05-13T06:36:42.790Z,28.12
2023-05-13T06:37:42.986Z,28.12
2023-05-13T06:38:43.125Z,28.12
2023-05-13T06:39:43.293Z,33.75
2023-05-13T06:40:43.434Z,33.75
2023-05-13T06:41:43.612Z,33.75
2023-05-13T06:42:43.763Z,33.75
2023-05-13T06:43:44.020Z,33.75
2023-05-13T06:44:44.119Z,33.75
2023-05-13T06:45:44.310Z,33.75
2023-05-13T06:46:44.507Z,33.75
2023-05-13T06:47:44.680Z,33.75
2023-05-13T06:48:44.831Z,33.75
2023-05-13T06:49:44.978Z,33.75
2023-05-13T06:50:45.144Z,33.75
2023-05-13T06:51:45.316Z,33.75
2023-05-13T06:52:45.483Z,33.75
2023-05-13T06:53:45.654Z,33.75
2023-05-13T06:54:45.821Z,33.75
2023-05-13T06:55:45.994Z,33.75
2023-05-13T06:56:46.140Z,33.75
2023-05-13T06:57:46.320Z,33.75
2023-05-13T06:58:46.485Z,33.75
2023-05-13T06:59:46.664Z,33.75
2023-05-13T07:00:46.953Z,33.75
2023-05-13T07:01:46.998Z,33.75
2023-05-13T07:02:47.205Z,33.75
2023-05-13T07:03:47.429Z,33.75
2023-05-13T07:04:47.548Z,33.75
2023-05-13T07:05:47.711Z,33.75
2023-05-13T07:06:47.883Z,33.75
2023-05-13T07:07:48.072Z,33.75
2023-05-13T07:08:48.199Z,39.38
2023-05-13T07:09:48.387Z,39.38
2023-05-13T07:10:48.540Z,39.38
2023-05-13T07:11:48.728Z,39.38
2023-05-13T07:12:48.864Z,39.38
2023-05-13T07:13:49.041Z,39.38
2023-05-13T07:14:49.222Z,39.38
2023-05-13T07:15:49.363Z,39.38
2023-05-13T07:16:51.494Z,39.38
2023-05-13T07:17:49.802Z,39.38
2023-05-13T07:18:49.961Z,39.38
2023-05-13T07:19:50.107Z,39.38
2023-05-13T07:20:50.246Z,39.38
2023-05-13T07:21:50.413Z,39.38
2023-05-13T07:22:50.663Z,39.38
2023-05-13T07:23:50.733Z,39.38
2023-05-13T07:24:50.895Z,39.38
2023-05-13T07:25:51.087Z,39.38
2023-05-13T07:26:51.234Z,39.38
2023-05-13T07:27:51.408Z,39.38
2023-05-13T07:28:51.550Z,39.38
2023-05-13T07:29:51.714Z,39.38
2023-05-13T07:30:51.906Z,39.38
2023-05-13T07:31:52.052Z,39.38
2023-05-13T07:32:53.889Z,39.38
2023-05-13T07:33:52.399Z,39.38
2023-05-13T07:34:52.553Z,39.38
2023-05-13T07:35:52.717Z,39.38
2023-05-13T07:36:52.876Z,39.38
2023-05-13T07:37:53.052Z,39.38
2023-05-13T07:38:53.210Z,39.38
2023-05-13T07:39:53.399Z,39.38
2023-05-13T07:40:53.578Z,39.38
2023-05-13T07:41:53.731Z,39.38
2023-05-13T07:42:53.913Z,39.38
2023-05-13T07:43:54.087Z,45.00
2023-05-13T07:44:54.260Z,39.38
2023-05-13T07:45:54.441Z,45.00
2023-05-13T07:46:54.605Z,45.00
2023-05-13T07:47:54.790Z,45.00
2023-05-13T07:48:54.920Z,39.38
2023-05-13T07:49:55.086Z,45.00
2023-05-13T07:50:55.257Z,45.00
2023-05-13T07:51:55.433Z,45.00
2023-05-13T07:52:55.607Z,45.00
2023-05-13T07:53:55.770Z,45.00
2023-05-13T07:54:55.946Z,45.00
2023-05-13T07:55:56.194Z,45.00
2023-05-13T07:56:56.339Z,45.00
2023-05-13T07:57:56.484Z,45.00
2023-05-13T07:58:56.677Z,45.00
2023-05-13T07:59:56.841Z,45.00
2023-05-13T08:00:57.028Z,45.00
2023-05-13T08:01:57.215Z,45.00
2023-05-13T08:02:57.444Z,45.00
2023-05-13T08:03:57.708Z,45.00
2023-05-13T08:04:57.743Z,45.00
2023-05-13T08:05:57.885Z,45.00
2023-05-13T08:06:58.051Z,50.62
2023-05-13T08:07:58.207Z,45.00
2023-05-13T08:08:58.395Z,45.00
2023-05-13T08:09:58.545Z,45.00
2023-05-13T08:10:58.814Z,45.00
2023-05-13T08:11:58.982Z,45.00
2023-05-13T08:12:59.074Z,50.62
2023-05-13T08:13:59.260Z,50.62
2023-05-13T08:14:59.410Z,50.62
2023-05-13T08:15:59.589Z,50.62
2023-05-13T08:16:59.751Z,50.62
2023-05-13T08:17:59.962Z,50.62
2023-05-13T08:19:00.241Z,50.62
2023-05-13T08:20:00.337Z,50.62
2023-05-13T08:21:00.434Z,50.62
2023-05-13T08:22:00.611Z,50.62
2023-05-13T08:23:00.784Z,50.62
2023-05-13T08:24:00.970Z,50.62
2023-05-13T08:25:01.239Z,50.62
2023-05-13T08:26:01.283Z,50.62
2023-05-13T08:27:01.460Z,50.62
2023-05-13T08:28:01.639Z,50.62
2023-05-13T08:29:01.801Z,50.62
2023-05-13T08:30:01.943Z,50.62
2023-05-13T08:31:02.106Z,50.62
2023-05-13T08:32:02.298Z,50.62
2023-05-13T08:33:02.488Z,50.62
2023-05-13T08:34:02.650Z,50.62
2023-05-13T08:35:02.817Z,50.62
2023-05-13T08:36:02.982Z,50.62
2023-05-13T08:37:03.155Z,50.62
2023-05-13T08:38:03.331Z,56.25
2023-05-13T08:39:03.482Z,56.25
2023-05-13T08:40:03.662Z,56.25
2023-05-13T08:41:03.816Z,56.25
2023-05-13T08:42:04.005Z,56.25
2023-05-13T08:43:04.192Z,56.25
2023-05-13T08:44:04.358Z,56.25
2023-05-13T08:45:04.574Z,56.25
2023-05-13T08:46:04.770Z,56.25
2023-05-13T08:47:04.889Z,56.25
2023-05-13T08:48:05.100Z,56.25
2023-05-13T08:49:05.234Z,56.25
2023-05-13T08:50:05.398Z,61.88
2023-05-13T08:51:05.581Z,61.88
2023-05-13T08:52:05.758Z,61.88
2023-05-13T08:53:05.910Z,61.88
2023-05-13T08:54:06.086Z,61.88
2023-05-13T08:55:06.233Z,61.88
2023-05-13T08:56:06.413Z,61.88
2023-05-13T08:57:06.595Z,61.88
2023-05-13T08:58:06.753Z,61.88
2023-05-13T08:59:06.917Z,61.88
2023-05-13T09:00:07.096Z,61.88
2023-05-13T09:01:07.283Z,39.38
2023-05-13T09:02:07.417Z,39.38
2023-05-13T09:03:07.622Z,39.38
2023-05-13T09:04:07.745Z,39.38
2023-05-13T09:05:07.991Z,39.38
2023-05-13T09:06:08.083Z,39.38
2023-05-13T09:07:08.234Z,45.00
2023-05-13T09:08:08.389Z,39.38
2023-05-13T09:09:08.590Z,45.00
2023-05-13T09:10:08.820Z,45.00
2023-05-13T09:11:08.953Z,45.00
2023-05-13T09:12:09.137Z,45.00
2023-05-13T09:13:09.294Z,45.00
2023-05-13T09:14:09.465Z,45.00
2023-05-13T09:15:09.632Z,45.00
2023-05-13T09:16:09.860Z,45.00
2023-05-13T09:17:09.976Z,45.00
2023-05-13T09:18:10.211Z,45.00
2023-05-13T09:19:10.367Z,45.00
2023-05-13T09:20:10.486Z,45.00
2023-05-13T09:21:10.639Z,45.00
2023-05-13T09:22:10.792Z,50.62
2023-05-13T09:23:11.005Z,50.62
2023-05-13T09:24:11.682Z,50.62
2023-05-13T09:25:11.333Z,50.62
2023-05-13T09:26:11.473Z,50.62
2023-05-13T09:27:11.653Z,50.62
2023-05-13T09:28:11.826Z,50.62
2023-05-13T09:29:12.003Z,50.62
2023-05-13T09:30:12.180Z,50.62
2023-05-13T09:31:12.364Z,56.25
2023-05-13T09:32:12.516Z,56.25
2023-05-13T09:33:12.807Z,56.25
2023-05-13T09:34:12.885Z,56.25
2023-05-13T09:35:13.060Z,56.25
2023-05-13T09:36:13.241Z,56.25
2023-05-13T09:37:13.398Z,56.25
2023-05-13T09:38:13.566Z,45.00
2023-05-13T09:39:13.726Z,56.25
2023-05-13T09:40:13.899Z,61.88
2023-05-13T09:41:14.052Z,61.88
2023-05-13T09:42:14.238Z,61.88
2023-05-13T09:43:14.397Z,22.50
2023-05-13T09:44:14.583Z,73.12
2023-05-13T09:45:14.733Z,73.12
2023-05-13T09:46:14.912Z,73.12
2023-05-13T09:47:15.176Z,78.75
2023-05-13T09:48:15.288Z,84.38
2023-05-13T09:49:15.492Z,90.00
2023-05-13T09:50:15.641Z,22.50
2023-05-13T09:51:15.830Z,78.75
2023-05-13T09:52:15.979Z,101.25
2023-05-13T09:53:16.171Z,112.50
2023-05-13T09:54:16.332Z,135.00
2023-05-13T09:55:16.547Z,185.62
2023-05-13T09:56:16.696Z,33.75
2023-05-13T09:57:16.866Z,123.75
2023-05-13T09:58:17.037Z,298.12
2023-05-13T09:59:17.265Z,292.50
2023-05-13T10:00:28.973Z,292.50
2023-05-13T10:01:18.591Z,315.00
2023-05-13T10:02:17.728Z,343.12
2023-05-13T10:03:17.939Z,348.75
2023-05-13T10:04:18.174Z,354.38
2023-05-13T10:05:18.286Z,309.38
2023-05-13T10:06:18.425Z,258.75
2023-05-13T10:07:18.643Z,241.88
2023-05-13T10:08:18.804Z,174.38
2023-05-13T10:09:18.976Z,146.25
2023-05-13T10:10:19.203Z,129.38
2023-05-13T10:11:19.320Z,123.75
2023-05-13T10:12:19.531Z,106.88
2023-05-13T10:13:19.640Z,95.62
2023-05-13T10:14:19.843Z,90.00
2023-05-13T10:15:20.035Z,95.62
2023-05-13T10:16:20.206Z,95.62
2023-05-13T10:17:20.350Z,95.62
2023-05-13T10:18:20.555Z,101.25
2023-05-13T10:19:20.732Z,95.62
2023-05-13T10:20:20.990Z,106.88
2023-05-13T10:21:21.031Z,106.88
2023-05-13T10:22:21.181Z,106.88
2023-05-13T10:23:21.349Z,106.88
2023-05-13T10:24:21.505Z,118.12
2023-05-13T10:25:21.658Z,140.62
2023-05-13T10:26:21.839Z,180.00
2023-05-13T10:27:21.990Z,331.88
2023-05-13T10:28:22.178Z,618.75
2023-05-13T10:29:22.353Z,1406.25
2023-05-13T10:30:22.694Z,2126.25
2023-05-13T10:31:22.727Z,2013.75
2023-05-13T10:32:22.880Z,1327.50
2023-05-13T10:33:23.053Z,838.12
2023-05-13T10:34:23.228Z,528.75
2023-05-13T10:35:23.402Z,140.62
2023-05-13T10:36:23.548Z,106.88
2023-05-13T10:37:23.750Z,101.25
2023-05-13T10:38:23.890Z,95.62
2023-05-13T10:39:24.064Z,95.62
2023-05-13T10:40:24.572Z,90.00
2023-05-13T10:41:24.431Z,84.38
2023-05-13T10:42:24.609Z,84.38
2023-05-13T10:43:24.778Z,84.38
2023-05-13T10:44:24.936Z,84.38
2023-05-13T10:45:25.145Z,84.38
2023-05-13T10:46:25.351Z,84.38
2023-05-13T10:47:25.551Z,84.38
2023-05-13T10:48:25.774Z,90.00
2023-05-13T10:49:25.852Z,90.00
2023-05-13T10:50:26.067Z,95.62
2023-05-13T10:51:26.219Z,84.38
2023-05-13T10:52:26.333Z,84.38
2023-05-13T10:53:26.509Z,90.00
2023-05-13T10:54:26.655Z,95.62
2023-05-13T10:55:26.861Z,39.38
2023-05-13T10:56:27.039Z,67.50
2023-05-13T10:57:27.183Z,73.12
2023-05-13T10:58:27.363Z,39.38
2023-05-13T10:59:27.513Z,67.50
2023-05-13T11:00:27.687Z,33.75
2023-05-13T11:01:27.896Z,33.75
2023-05-13T11:02:28.068Z,33.75
2023-05-13T11:03:29.292Z,39.38
2023-05-13T11:04:28.380Z,33.75
2023-05-13T11:05:28.577Z,90.00
2023-05-13T11:06:28.696Z,90.00
2023-05-13T11:07:28.877Z,90.00
2023-05-13T11:08:29.048Z,73.12
2023-05-13T11:09:29.225Z,90.00
2023-05-13T11:10:29.414Z,90.00
2023-05-13T11:11:29.591Z,84.38
2023-05-13T11:12:29.728Z,84.38
2023-05-13T11:13:29.897Z,84.38
2023-05-13T11:14:30.085Z,90.00
2023-05-13T11:15:30.264Z,84.38
2023-05-13T11:16:30.448Z,84.38
2023-05-13T11:17:30.599Z,84.38
2023-05-13T11:18:30.774Z,84.38
2023-05-13T11:19:30.944Z,84.38
2023-05-13T11:20:37.379Z,84.38
2023-05-13T11:21:32.273Z,84.38
2023-05-13T11:22:31.427Z,78.75
2023-05-13T11:23:31.595Z,84.38
2023-05-13T11:24:31.744Z,84.38
2023-05-13T11:25:31.907Z,84.38
2023-05-13T11:26:32.080Z,84.38
2023-05-13T11:27:32.241Z,84.38
2023-05-13T11:28:32.435Z,84.38
2023-05-13T11:29:32.632Z,84.38
2023-05-13T11:30:32.777Z,84.38
2023-05-13T11:31:32.991Z,90.00
2023-05-13T11:32:33.114Z,90.00
2023-05-13T11:33:33.325Z,56.25
2023-05-13T11:34:33.489Z,90.00
2023-05-13T11:35:33.649Z,90.00
2023-05-13T11:36:33.816Z,84.38
2023-05-13T11:37:34.007Z,90.00
2023-05-13T11:38:34.184Z,90.00
2023-05-13T11:39:34.317Z,95.62
2023-05-13T11:40:34.520Z,101.25
2023-05-13T11:41:34.723Z,61.88
2023-05-13T11:42:34.861Z,258.75
2023-05-13T11:43:35.024Z,922.50
2023-05-13T11:44:35.218Z,686.25
2023-05-13T11:45:35.390Z,444.38
2023-05-13T11:46:35.559Z,101.25
2023-05-13T11:47:35.767Z,95.62
2023-05-13T11:48:35.872Z,90.00
2023-05-13T11:49:36.046Z,90.00
2023-05-13T11:50:36.226Z,90.00
2023-05-13T11:51:36.403Z,90.00
2023-05-13T11:52:36.574Z,84.38
2023-05-13T11:53:36.758Z,84.38
2023-05-13T11:54:36.931Z,84.38
2023-05-13T11:55:37.087Z,84.38
2023-05-13T11:56:37.284Z,84.38
2023-05-13T11:57:37.429Z,84.38
2023-05-13T11:58:37.589Z,84.38
2023-05-13T11:59:47.601Z,84.38
2023-05-13T12:00:38.969Z,84.38
2023-05-13T12:01:38.184Z,84.38
2023-05-13T12:02:38.489Z,84.38
2023-05-13T12:03:38.490Z,84.38
2023-05-13T12:04:38.636Z,84.38
2023-05-13T12:05:38.867Z,84.38
2023-05-13T12:06:38.976Z,84.38
2023-05-13T12:07:39.144Z,90.00
2023-05-13T12:08:39.312Z,90.00
2023-05-13T12:09:39.448Z,90.00
2023-05-13T12:10:39.652Z,90.00
2023-05-13T12:11:39.807Z,90.00
2023-05-13T12:12:39.988Z,95.62
2023-05-13T12:13:40.148Z,95.62
2023-05-13T12:14:40.331Z,95.62
2023-05-13T12:15:40.561Z,95.62
2023-05-13T12:16:40.683Z,95.62
2023-05-13T12:17:40.917Z,95.62
2023-05-13T12:18:41.096Z,95.62
2023-05-13T12:19:41.246Z,95.62
2023-05-13T12:20:41.415Z,95.62
2023-05-13T12:21:41.570Z,95.62
2023-05-13T12:22:41.757Z,95.62
2023-05-13T12:23:41.932Z,95.62
2023-05-13T12:24:42.117Z,95.62
2023-05-13T12:25:42.266Z,95.62
2023-05-13T12:26:42.434Z,95.62
2023-05-13T12:27:42.611Z,95.62
2023-05-13T12:28:42.845Z,95.62
2023-05-13T12:29:42.996Z,101.25
2023-05-13T12:30:43.147Z,101.25
2023-05-13T12:31:43.387Z,101.25
2023-05-13T12:32:45.725Z,101.25
2023-05-13T12:33:43.639Z,101.25
2023-05-13T12:34:43.826Z,90.00
2023-05-13T12:35:43.977Z,106.88
2023-05-13T12:36:44.207Z,112.50
2023-05-13T12:37:44.303Z,50.62
2023-05-13T12:38:44.487Z,50.62
2023-05-13T12:39:44.656Z,45.00
2023-05-13T12:40:44.862Z,50.62
2023-05-13T12:41:44.996Z,45.00
2023-05-13T12:42:45.177Z,78.75
2023-05-13T12:43:45.351Z,118.12
2023-05-13T12:44:45.501Z,112.50
2023-05-13T12:45:45.673Z,118.12
2023-05-13T12:46:45.925Z,118.12
2023-05-13T12:47:46.022Z,112.50
2023-05-13T12:48:46.173Z,118.12
2023-05-13T12:49:46.329Z,118.12
2023-05-13T12:50:46.566Z,118.12
2023-05-13T12:51:46.674Z,123.75
2023-05-13T12:52:46.855Z,84.38
2023-05-13T12:53:47.017Z,56.25
2023-05-13T12:54:47.211Z,56.25
2023-05-13T12:55:47.355Z,61.88
2023-05-13T12:56:47.530Z,50.62
2023-05-13T12:57:47.697Z,50.62
2023-05-13T12:58:47.895Z,101.25
2023-05-13T12:59:48.054Z,50.62
2023-05-13T13:00:48.315Z,50.62